KITH

Ithaca Tompkins Regional Airport

Ithaca, New York, USA
METAR KITH 221656Z 17011KT 7SM -RA OVC010 16/15 A3002 RMK AO2 RAB32 SLP165 P0001 T01610150
Observed Flight Rules
May-22 @ 16:56 UTC (57 minutes ago) Marginal Visual Flight Rules
Wind Visibility Clouds Conditions
170° at 11 knots 7 miles
  • Overcast at 1,000' AGL
  • Light Rain
Temperatures Readings Precipitation
Current 16°C / 61°F
Dewpoint 15°C / 59°F
Humidity 94%
Altimeter 30.02" Hg
Pressure 1016.5 hPa
Elevation 335
Current Rain 0.01
METAR KITH 221656Z 17011KT 7SM -RA OVC010 16/15 A3002 RMK AO2 RAB32 SLP165 P0001 T01610150
Observed Flight Rules
May-22 @ 16:56 UTC
(57 minutes ago)
MVFR
Wind Visibility
170° at 11 knots 7 miles
Clouds
  • Overcast at 1,000' AGL
Conditions
  • Light Rain
Temperature Dewpoint
16°C / 61°F 15°C / 59°F
Humidity Altimeter Pressure
94% 30.02" Hg 1016.5 hPa
Current Rain
0.01